Time;durP1;ratioP1;P1;durP2;ratioP2;P2;SDS_P1;SDS_P2;PMS_P1;PMS_P2;Temp;Humidity;BMP_temperature;BMP_pressure;BME280_temperature;BME280_humidity;BME280_pressure;Samples;Min_cycle;Max_cycle;Signal;HPM_P1;HPM_P2
2022/06/23 00:01:14;;;;;;;4.93;4.43;;;13.50;99.90;;;;;;5028994;28;20465;-52
2022/06/23 00:03:40;;;;;;;5.30;3.93;;;13.40;1.00;;;;;;5027508;28;20448;-52
2022/06/23 00:06:15;;;;;;;5.90;4.37;;;13.40;1.00;;;;;;5031305;28;20812;-52
2022/06/23 00:08:45;;;;;;;3.73;3.33;;;13.40;1.00;;;;;;5030643;28;20441;-52
2022/06/23 00:11:24;;;;;;;6.20;4.30;;;13.40;1.00;;;;;;5029272;28;21027;-52
2022/06/23 00:13:51;;;;;;;4.80;4.30;;;13.30;1.00;;;;;;5026389;28;20465;-52
2022/06/23 00:16:27;;;;;;;8.30;4.80;;;13.30;1.00;;;;;;5028916;28;20448;-52
2022/06/23 00:18:53;;;;;;;4.90;4.10;;;13.30;1.00;;;;;;5030390;28;20499;-52
2022/06/23 00:21:32;;;;;;;5.77;4.67;;;13.30;1.00;;;;;;5032944;28;20474;-52
2022/06/23 00:24:02;;;;;;;4.90;4.40;;;13.20;1.00;;;;;;5024116;28;20432;-52
2022/06/23 00:26:31;;;;;;;6.33;4.93;;;13.20;10.00;;;;;;5030007;28;20516;-53
2022/06/23 00:29:15;;;;;;;5.60;5.10;;;13.20;99.90;;;;;;5028924;28;20461;-52
2022/06/23 00:31:56;;;;;;;7.17;5.40;;;13.10;99.90;;;;;;5031193;28;20502;-53
2022/06/23 00:34:52;;;;;;;4.90;4.40;;;13.10;1.00;;;;;;5026038;28;20432;-52
2022/06/23 00:37:19;;;;;;;5.30;4.80;;;13.10;1.00;;;;;;5033081;28;20441;-52
2022/06/23 00:39:54;;;;;;;5.77;5.10;;;13.00;99.90;;;;;;5031026;28;20805;-52
2022/06/23 00:42:25;;;;;;;5.60;4.90;;;13.00;1.00;;;;;;5033512;28;20468;-53
2022/06/23 00:45:25;;;;;;;7.97;4.60;;;13.00;99.90;;;;;;5032820;28;20830;-52
2022/06/23 00:48:05;;;;;;;5.73;5.10;;;13.00;1.00;;;;;;5032366;28;20444;-53
2022/06/23 00:50:45;;;;;;;5.43;4.80;;;13.00;99.90;;;;;;5029475;28;20433;-53
2022/06/23 00:53:11;;;;;;;5.77;4.53;;;13.00;99.90;;;;;;5029774;28;21000;-53
2022/06/23 00:55:52;;;;;;;5.17;4.67;;;12.90;99.90;;;;;;5031791;28;20441;-53
2022/06/23 00:58:27;;;;;;;7.27;6.50;;;12.90;99.90;;;;;;5031143;28;20293;-56
2022/06/23 01:00:56;;;;;;;7.03;5.50;;;12.90;1.00;;;;;;5031551;28;20495;-52
2022/06/23 01:03:29;;;;;;;5.60;5.10;;;12.80;1.00;;;;;;5027149;28;20421;-57
2022/06/23 01:06:23;;;;;;;6.90;5.60;;;12.80;1.00;;;;;;5029220;28;20444;-52
2022/06/23 01:08:55;;;;;;;6.23;4.90;;;12.80;1.00;;;;;;5029048;28;20448;-53
2022/06/23 01:11:38;;;;;;;7.90;5.20;;;12.80;99.90;;;;;;5031457;28;20962;-53
2022/06/23 01:14:41;;;;;;;6.43;5.67;;;12.80;1.00;;;;;;5027211;28;20444;-53
2022/06/23 01:17:13;;;;;;;6.53;5.50;;;12.70;13.50;;;;;;5018022;28;20457;-53
2022/06/23 01:19:57;;;;;;;6.47;5.40;;;12.70;1.00;;;;;;5028474;28;20512;-52
2022/06/23 01:22:50;;;;;;;6.23;5.17;;;12.70;1.00;;;;;;5030505;28;20580;-52
2022/06/23 01:25:37;;;;;;;5.87;5.37;;;12.70;99.90;;;;;;5029081;28;20483;-53
2022/06/23 01:28:27;;;;;;;5.50;5.00;;;12.70;99.90;;;;;;5023658;28;20442;-52
2022/06/23 01:30:55;;;;;;;7.67;5.33;;;12.70;1.00;;;;;;5028096;28;20515;-53
2022/06/23 01:33:43;;;;;;;9.83;5.43;;;12.60;99.90;;;;;;5031530;28;20438;-53
2022/06/23 01:36:31;;;;;;;9.03;5.70;;;12.60;10.60;;;;;;5023773;28;20445;-53
2022/06/23 01:39:15;;;;;;;8.87;5.40;;;12.50;99.90;;;;;;5017043;28;20450;-52
2022/06/23 01:42:06;;;;;;;5.83;5.23;;;12.50;99.90;;;;;;5029847;28;20465;-53
2022/06/23 01:45:00;;;;;;;7.00;6.03;;;12.50;66.20;;;;;;5027523;28;20476;-53
2022/06/23 01:47:50;;;;;;;7.00;6.30;;;12.40;99.90;;;;;;5027667;28;20433;-52
2022/06/23 01:50:34;;;;;;;6.57;5.87;;;12.50;15.80;;;;;;5029386;28;20939;-56
2022/06/23 01:53:13;;;;;;;6.87;4.97;;;12.50;91.90;;;;;;5026317;28;20449;-53
2022/06/23 01:56:17;;;;;;;7.27;5.13;;;12.40;12.20;;;;;;5026765;28;20438;-53
2022/06/23 01:58:49;;;;;;;9.70;4.90;;;12.40;1.00;;;;;;5030524;28;20437;-52
2022/06/23 02:01:28;;;;;;;7.30;5.47;;;12.40;1.00;;;;;;5029257;28;20560;-53
2022/06/23 02:04:01;;;;;;;6.43;5.83;;;12.30;1.00;;;;;;5026386;28;20930;-53
2022/06/23 02:06:38;;;;;;;7.73;5.80;;;12.30;1.00;;;;;;5028902;28;20434;-53
2022/06/23 02:09:38;;;;;;;8.03;6.10;;;12.30;20.30;;;;;;5027550;28;21375;-53
2022/06/23 02:12:25;;;;;;;12.90;6.97;;;12.20;99.90;;;;;;5025322;28;20457;-53
2022/06/23 02:15:05;;;;;;;7.33;6.53;;;12.20;85.90;;;;;;5025464;28;20442;-53
2022/06/23 02:17:54;;;;;;;7.60;6.80;;;12.20;99.90;;;;;;5028369;28;20460;-53
2022/06/23 02:21:00;;;;;;;8.50;6.93;;;12.20;99.90;;;;;;5030276;28;20440;-52
2022/06/23 02:23:31;;;;;;;11.90;7.50;;;12.20;99.90;;;;;;5022271;28;20441;-53
2022/06/23 02:26:12;;;;;;;9.80;7.00;;;12.20;99.90;;;;;;5029019;28;20433;-53
2022/06/23 02:28:53;;;;;;;9.27;7.67;;;12.20;99.90;;;;;;5030210;28;20918;-58
2022/06/23 02:31:31;;;;;;;10.23;7.13;;;12.20;99.90;;;;;;5025395;28;20458;-53
2022/06/23 02:34:05;;;;;;;9.20;6.70;;;12.20;99.90;;;;;;5029826;28;20445;-53
2022/06/23 02:36:59;;;;;;;8.07;6.53;;;12.20;99.90;;;;;;5023730;28;20532;-53
2022/06/23 02:39:49;;;;;;;8.73;7.10;;;12.10;99.90;;;;;;5028366;28;20461;-53
2022/06/23 02:42:26;;;;;;;8.93;7.00;;;12.10;99.90;;;;;;5025754;28;22350;-53
2022/06/23 02:45:09;;;;;;;9.10;7.40;;;12.10;99.90;;;;;;5027378;28;20981;-54
2022/06/23 02:48:19;;;;;;;9.33;7.23;;;12.10;99.90;;;;;;5029215;28;20524;-52
2022/06/23 02:50:59;;;;;;;7.97;6.80;;;12.10;99.90;;;;;;5043513;28;20532;-53
2022/06/23 02:54:11;;;;;;;12.27;6.90;;;12.10;99.90;;;;;;5028573;28;20432;-53
2022/06/23 02:57:07;;;;;;;9.03;6.43;;;12.10;99.90;;;;;;5020669;28;20446;-53
2022/06/23 03:00:05;;;;;;;12.40;8.30;;;12.10;99.90;;;;;;5028839;28;20441;-53
2022/06/23 03:02:35;;;;;;;8.83;7.83;;;12.10;99.90;;;;;;5026586;28;20576;-53
2022/06/23 03:05:17;;;;;;;10.60;8.03;;;12.10;99.90;;;;;;5028712;28;21047;-53
2022/06/23 03:07:57;;;;;;;13.33;8.00;;;12.10;99.90;;;;;;5023990;28;20495;-56
2022/06/23 03:10:44;;;;;;;9.63;7.57;;;12.20;99.90;;;;;;5024734;28;20487;-53
2022/06/23 03:13:31;;;;;;;10.57;9.00;;;12.20;99.90;;;;;;5027561;28;20552;-53
2022/06/23 03:16:22;;;;;;;11.27;8.80;;;12.20;99.90;;;;;;5028192;28;20507;-53
2022/06/23 03:18:57;;;;;;;10.53;8.80;;;12.30;99.90;;;;;;5026123;28;20496;-53
2022/06/23 03:21:40;;;;;;;12.97;9.90;;;12.30;99.90;;;;;;5027601;28;21196;-53
2022/06/23 03:24:09;;;;;;;11.60;8.23;;;12.40;99.90;;;;;;5026777;28;21032;-53
2022/06/23 03:26:52;;;;;;;16.17;11.50;;;12.50;99.90;;;;;;5028892;28;20440;-53
2022/06/23 03:29:31;;;;;;;17.20;11.93;;;12.60;99.90;;;;;;5026873;28;20781;-53
2022/06/23 03:32:08;;;;;;;18.53;11.87;;;12.80;99.90;;;;;;5024375;28;20449;-53
2022/06/23 03:34:49;;;;;;;17.37;10.67;;;12.90;99.90;;;;;;5020739;28;20438;-53
2022/06/23 03:37:30;;;;;;;15.57;10.47;;;13.00;99.90;;;;;;5025213;28;20437;-53
2022/06/23 03:42:58;;;;;;;15.73;10.60;;;13.10;99.90;;;;;;5029044;28;20818;-53
2022/06/23 03:45:45;;;;;;;14.90;11.57;;;13.10;99.90;;;;;;5028490;28;20484;-53
2022/06/23 03:48:17;;;;;;;19.50;11.97;;;13.20;99.90;;;;;;5028262;28;20444;-53
2022/06/23 03:51:03;;;;;;;16.27;11.27;;;13.40;99.90;;;;;;5029468;28;20435;-53
2022/06/23 03:53:34;;;;;;;15.40;11.20;;;13.50;99.90;;;;;;5031866;28;20444;-54
2022/06/23 03:56:25;;;;;;;16.47;12.20;;;13.60;99.90;;;;;;5033713;28;20444;-53
2022/06/23 03:59:17;;;;;;;13.20;10.20;;;13.80;99.90;;;;;;5030464;28;20450;-54
2022/06/23 04:01:53;;;;;;;18.73;11.23;;;13.80;99.90;;;;;;5026655;28;20635;-53
2022/06/23 04:04:46;;;;;;;14.73;10.93;;;13.90;99.90;;;;;;5032460;28;20425;-53
2022/06/23 04:07:29;;;;;;;16.13;10.47;;;14.00;99.90;;;;;;5030560;28;20961;-53
2022/06/23 04:10:12;;;;;;;15.70;10.33;;;14.10;99.90;;;;;;5030513;28;20448;-53
2022/06/23 04:12:45;;;;;;;23.17;11.03;;;14.10;99.90;;;;;;5029896;28;20454;-53
2022/06/23 04:15:17;;;;;;;15.60;11.57;;;14.20;99.90;;;;;;5031345;28;20472;-53
2022/06/23 04:18:16;;;;;;;13.60;9.50;;;14.30;99.90;;;;;;5045240;28;20448;-52
2022/06/23 04:20:47;;;;;;;14.53;11.13;;;14.40;99.90;;;;;;5030321;28;20441;-53
2022/06/23 04:23:39;;;;;;;13.17;10.40;;;14.40;99.90;;;;;;5029500;28;20480;-53
2022/06/23 04:26:29;;;;;;;13.63;9.70;;;14.50;99.90;;;;;;5028259;28;20433;-53
2022/06/23 04:29:12;;;;;;;12.73;10.03;;;14.60;99.90;;;;;;5028251;28;20433;-61
2022/06/23 04:31:47;;;;;;;12.20;9.70;;;14.70;99.90;;;;;;5031132;28;20534;-53
2022/06/23 04:34:27;;;;;;;15.33;11.00;;;14.90;99.90;;;;;;5029090;28;20978;-53
2022/06/23 04:36:53;;;;;;;19.77;11.33;;;14.90;99.90;;;;;;5033091;28;20465;-54
2022/06/23 04:39:41;;;;;;;15.00;10.83;;;15.10;99.90;;;;;;5031516;28;20985;-52
2022/06/23 04:42:23;;;;;;;12.90;10.40;;;15.20;99.90;;;;;;5030600;28;20211;-52
2022/06/23 04:44:53;;;;;;;18.13;10.30;;;15.40;99.90;;;;;;5027829;28;20866;-52
2022/06/23 04:47:31;;;;;;;16.27;9.57;;;15.60;99.90;;;;;;5031226;28;20449;-52
2022/06/23 04:50:30;;;;;;;15.10;10.30;;;15.70;99.90;;;;;;5030809;28;20441;-56
2022/06/23 04:52:57;;;;;;;15.30;9.90;;;15.90;99.90;;;;;;5029911;28;20785;-58
2022/06/23 04:55:28;;;;;;;15.10;9.50;;;16.10;99.90;;;;;;5027763;28;20452;-52
2022/06/23 04:58:06;;;;;;;10.80;7.93;;;16.30;99.90;;;;;;5032013;28;20784;-52
2022/06/23 05:00:40;;;;;;;15.00;9.03;;;16.40;99.90;;;;;;5031495;28;20436;-52
2022/06/23 05:03:26;;;;;;;17.10;8.90;;;16.60;1.00;;;;;;5028226;28;20957;-53
2022/06/23 05:05:58;;;;;;;11.73;8.73;;;16.70;1.00;;;;;;5027896;28;20549;-52
2022/06/23 05:08:28;;;;;;;16.23;7.73;;;16.90;99.90;;;;;;5030385;28;20935;-52
2022/06/23 05:11:02;;;;;;;13.20;8.37;;;17.10;99.90;;;;;;5030367;28;20500;-54
2022/06/23 05:13:36;;;;;;;10.47;8.00;;;17.30;99.90;;;;;;5028626;28;20528;-52
2022/06/23 05:16:07;;;;;;;10.23;8.00;;;17.50;99.90;;;;;;5023979;28;20473;-53
2022/06/23 05:18:43;;;;;;;14.60;8.50;;;17.60;99.90;;;;;;5031657;28;20520;-52
2022/06/23 05:21:23;;;;;;;10.97;7.43;;;17.70;99.90;;;;;;5030044;28;21180;-53
2022/06/23 05:23:59;;;;;;;10.67;7.67;;;17.80;99.90;;;;;;5029522;28;20442;-53
2022/06/23 05:26:47;;;;;;;13.10;7.40;;;18.00;99.90;;;;;;5030088;28;20495;-52
2022/06/23 05:29:18;;;;;;;12.60;7.83;;;18.10;99.90;;;;;;5029049;28;20454;-53
2022/06/23 05:31:47;;;;;;;15.10;7.10;;;18.30;99.90;;;;;;5030235;28;20437;-52
2022/06/23 05:34:25;;;;;;;11.63;6.90;;;18.40;99.90;;;;;;5028859;28;20445;-52
2022/06/23 05:37:16;;;;;;;18.73;7.57;;;18.60;99.90;;;;;;5028580;28;20938;-52
2022/06/23 05:40:06;;;;;;;10.43;6.80;;;18.80;99.90;;;;;;5029980;28;20843;-52
2022/06/23 05:42:32;;;;;;;15.00;7.30;;;18.90;99.90;;;;;;5031273;28;20465;-52
2022/06/23 05:45:08;;;;;;;26.90;7.30;;;19.20;99.90;;;;;;5030539;28;20477;-52
2022/06/23 05:47:37;;;;;;;11.37;6.33;;;19.40;99.90;;;;;;5029998;28;20521;-52
2022/06/23 05:50:08;;;;;;;9.90;6.43;;;19.60;99.90;;;;;;5030528;28;20425;-52
2022/06/23 05:52:58;;;;;;;10.50;6.40;;;19.70;99.90;;;;;;5029146;28;20429;-52
2022/06/23 05:55:44;;;;;;;10.13;6.40;;;19.80;99.90;;;;;;5029848;28;20927;-52
2022/06/23 05:58:29;;;;;;;10.50;6.03;;;19.90;99.90;;;;;;5029520;28;20818;-52
2022/06/23 06:00:54;;;;;;;10.23;6.63;;;20.20;99.90;;;;;;5023231;28;20480;-52
2022/06/23 06:03:29;;;;;;;11.83;6.77;;;20.30;99.90;;;;;;5026001;28;20908;-52
2022/06/23 06:05:57;;;;;;;10.27;6.20;;;20.50;99.90;;;;;;5030007;28;20217;-52
2022/06/23 06:08:30;;;;;;;17.63;6.63;;;20.60;99.90;;;;;;5029093;28;20499;-52
2022/06/23 06:10:58;;;;;;;10.90;5.70;;;20.70;99.90;;;;;;5026677;28;20439;-52
2022/06/23 06:13:31;;;;;;;16.17;6.57;;;20.90;99.90;;;;;;5029237;28;20472;-52
2022/06/23 06:15:59;;;;;;;10.00;5.60;;;21.00;99.90;;;;;;5023569;28;20821;-52
2022/06/23 06:18:32;;;;;;;10.43;5.50;;;21.20;99.90;;;;;;5025299;28;20446;-52
2022/06/23 06:21:01;;;;;;;8.90;5.40;;;21.30;99.90;;;;;;5028042;28;20450;-52
2022/06/23 06:23:46;;;;;;;10.97;5.50;;;21.50;99.90;;;;;;5029254;28;20437;-52
2022/06/23 06:26:16;;;;;;;12.10;6.13;;;21.70;99.90;;;;;;5028642;28;20457;-52
2022/06/23 06:28:41;;;;;;;10.50;5.40;;;21.90;99.90;;;;;;5028717;28;20441;-52
2022/06/23 06:31:15;;;;;;;6.63;5.27;;;22.00;99.90;;;;;;5028280;28;20491;-52
2022/06/23 06:34:02;;;;;;;6.87;5.27;;;22.10;99.90;;;;;;5029868;28;20245;-57
2022/06/23 06:36:42;;;;;;;9.17;5.57;;;22.20;99.90;;;;;;5024909;28;20514;-52
2022/06/23 06:39:13;;;;;;;8.90;5.20;;;22.30;99.90;;;;;;5029787;28;20437;-52
2022/06/23 06:41:42;;;;;;;8.80;5.10;;;22.30;99.90;;;;;;5028489;28;20489;-55
2022/06/23 06:44:09;;;;;;;7.05;4.70;;;22.50;99.90;;;;;;5021433;28;20515;-52
2022/06/23 06:46:37;;;;;;;10.13;5.33;;;22.80;99.90;;;;;;5021071;28;20199;-52
2022/06/23 06:49:03;;;;;;;11.20;4.60;;;23.10;99.90;;;;;;5022235;28;20458;-52
2022/06/23 06:51:29;;;;;;;11.30;6.00;;;23.30;99.90;;;;;;5024428;28;20533;-52
2022/06/23 06:54:06;;;;;;;5.83;4.60;;;23.50;99.90;;;;;;5016353;28;20449;-53
2022/06/23 06:56:49;;;;;;;8.10;5.00;;;23.70;99.90;;;;;;5018209;28;20176;-52
2022/06/23 06:59:28;;;;;;;6.37;4.77;;;23.80;99.90;;;;;;5019508;28;20500;-57
2022/06/23 07:02:15;;;;;;;10.33;5.40;;;23.90;99.90;;;;;;5018210;28;20465;-52
2022/06/23 07:05:10;;;;;;;6.93;4.33;;;23.90;99.90;;;;;;5020166;28;20558;-52
2022/06/23 07:07:43;;;;;;;6.10;4.20;;;24.10;99.90;;;;;;5019343;28;20441;-52
2022/06/23 07:10:46;;;;;;;5.57;4.83;;;24.30;99.90;;;;;;5022738;28;20442;-52
2022/06/23 07:13:30;;;;;;;11.70;5.40;;;24.60;99.90;;;;;;5020019;28;20473;-52
2022/06/23 07:16:25;;;;;;;6.60;4.70;;;24.90;99.90;;;;;;5012739;28;20529;-52
2022/06/23 07:19:04;;;;;;;7.07;5.20;;;25.10;99.90;;;;;;5019522;28;20540;-52
2022/06/23 07:21:40;;;;;;;6.67;4.80;;;25.10;99.90;;;;;;5017301;28;20469;-52
2022/06/23 07:24:22;;;;;;;7.23;4.97;;;24.90;99.90;;;;;;5024683;28;20532;-53
2022/06/23 07:26:58;;;;;;;7.87;4.67;;;24.70;99.90;;;;;;5023642;28;20468;-52
2022/06/23 07:29:35;;;;;;;6.93;4.70;;;24.80;99.90;;;;;;5014677;28;20446;-52
2022/06/23 07:32:32;;;;;;;42.40;30.87;;;24.90;99.90;;;;;;5017126;28;20446;-52
2022/06/23 07:35:20;;;;;;;8.17;5.07;;;25.20;99.90;;;;;;5016338;28;20452;-52
2022/06/23 07:38:14;;;;;;;8.20;4.43;;;25.70;99.90;;;;;;5020923;28;20553;-52
2022/06/23 07:40:50;;;;;;;7.87;5.60;;;26.10;99.90;;;;;;5015063;28;20423;-52
2022/06/23 07:43:38;;;;;;;7.37;4.67;;;25.90;99.90;;;;;;5023241;28;20588;-52
2022/06/23 07:46:04;;;;;;;10.40;4.90;;;25.80;99.90;;;;;;5019214;28;20513;-51
2022/06/23 07:48:34;;;;;;;7.80;4.57;;;26.10;99.90;;;;;;5018090;28;20426;-52
2022/06/23 07:51:06;;;;;;;4.90;4.40;;;26.20;99.90;;;;;;5013805;28;20180;-51
2022/06/23 07:53:36;;;;;;;8.40;5.07;;;26.40;99.90;;;;;;5016437;28;20413;-51
2022/06/23 07:56:04;;;;;;;7.30;5.10;;;26.10;99.90;;;;;;5019668;28;20442;-52
2022/06/23 07:58:33;;;;;;;8.87;5.23;;;25.60;99.90;;;;;;5021923;28;20445;-51
2022/06/23 08:01:12;;;;;;;7.50;4.40;;;25.50;99.90;;;;;;5024156;28;20445;-52
2022/06/23 08:03:49;;;;;;;8.80;4.30;;;25.70;99.90;;;;;;5021707;28;20445;-52
2022/06/23 08:06:18;;;;;;;8.03;4.70;;;26.30;99.90;;;;;;5015935;28;20545;-52
2022/06/23 08:08:45;;;;;;;6.20;4.57;;;27.00;99.90;;;;;;5020818;28;20449;-52
2022/06/23 08:14:07;;;;;;;6.87;4.90;;;27.40;99.90;;;;;;5016494;28;20487;-52
2022/06/23 08:16:51;;;;;;;7.30;5.03;;;27.60;99.90;;;;;;5017765;28;20657;-52
2022/06/23 08:19:42;;;;;;;7.80;4.20;;;28.00;99.90;;;;;;5018837;28;20506;-52
2022/06/23 08:22:11;;;;;;;7.33;4.80;;;28.10;99.90;;;;;;5017766;28;20469;-52
2022/06/23 08:24:38;;;;;;;6.00;4.17;;;28.40;99.90;;;;;;5020613;28;20796;-52
2022/06/23 08:27:17;;;;;;;7.97;4.30;;;28.80;99.90;;;;;;5018512;28;20861;-52
2022/06/23 08:29:51;;;;;;;6.97;4.47;;;29.10;99.90;;;;;;5013115;28;20524;-52
2022/06/23 08:32:18;;;;;;;5.10;4.03;;;29.10;99.90;;;;;;5018127;28;20485;-52
2022/06/23 08:35:08;;;;;;;6.37;4.43;;;29.30;99.90;;;;;;5014349;28;21408;-52
2022/06/23 08:37:41;;;;;;;5.20;3.70;;;29.40;99.90;;;;;;5000159;28;20458;-51
2022/06/23 08:40:28;;;;;;;8.73;4.27;;;29.60;99.90;;;;;;5023234;28;20449;-52
2022/06/23 08:43:07;;;;;;;5.20;4.03;;;29.70;99.90;;;;;;5024131;28;21334;-52
2022/06/23 08:45:38;;;;;;;8.50;3.63;;;30.00;99.90;;;;;;5020919;28;20469;-52
2022/06/23 08:48:15;;;;;;;5.80;3.90;;;30.40;99.90;;;;;;5021300;28;20430;-52
2022/06/23 08:50:46;;;;;;;10.40;4.70;;;30.40;99.90;;;;;;5027379;28;20487;-53
2022/06/23 08:53:45;;;;;;;5.17;3.87;;;30.10;99.90;;;;;;5020584;28;20457;-52
2022/06/23 08:56:29;;;;;;;7.00;4.50;;;30.20;99.90;;;;;;5023035;28;20468;-52
2022/06/23 08:59:22;;;;;;;9.03;4.40;;;30.20;99.90;;;;;;5017976;28;20410;-52
2022/06/23 09:02:13;;;;;;;9.40;4.90;;;30.40;99.90;;;;;;5027283;28;20465;-52
2022/06/23 09:05:08;;;;;;;11.60;4.30;;;30.60;99.90;;;;;;5025385;28;20915;-51
2022/06/23 09:07:46;;;;;;;6.90;4.20;;;30.70;99.90;;;;;;5016874;28;20454;-52
2022/06/23 09:10:30;;;;;;;6.00;4.30;;;30.70;99.90;;;;;;5024064;28;20445;-52
2022/06/23 09:13:02;;;;;;;5.50;3.73;;;30.40;99.90;;;;;;5024738;28;20464;-58
2022/06/23 09:16:16;;;;;;;7.77;3.93;;;30.70;99.90;;;;;;5018163;28;20456;-52
2022/06/23 09:18:54;;;;;;;4.63;3.80;;;31.10;99.90;;;;;;5017475;28;20444;-51
2022/06/23 09:21:57;;;;;;;5.30;3.60;;;31.30;99.90;;;;;;5017678;28;20450;-52
2022/06/23 09:24:37;;;;;;;5.43;4.00;;;31.60;99.90;;;;;;5022436;28;20484;-52
2022/06/23 09:27:24;;;;;;;7.27;4.43;;;31.90;99.90;;;;;;5025329;28;20643;-52
2022/06/23 09:29:57;;;;;;;6.83;3.87;;;32.00;99.90;;;;;;5021542;28;20456;-52
2022/06/23 09:32:29;;;;;;;6.00;4.47;;;32.00;99.90;;;;;;5016423;28;20965;-52
2022/06/23 09:35:33;;;;;;;7.00;3.60;;;32.10;99.90;;;;;;5021252;28;20453;-52
2022/06/23 09:38:07;;;;;;;8.50;4.33;;;32.20;99.90;;;;;;5022758;28;21014;-52
2022/06/23 09:40:38;;;;;;;6.37;4.20;;;32.30;99.90;;;;;;5019898;28;20502;-52
2022/06/23 09:43:39;;;;;;;8.13;3.80;;;32.30;99.90;;;;;;5015343;28;20494;-52
2022/06/23 09:46:22;;;;;;;6.20;4.03;;;32.40;99.90;;;;;;5023436;28;20522;-52
2022/06/23 09:49:06;;;;;;;7.00;4.20;;;32.40;99.90;;;;;;5016156;28;20532;-52
2022/06/23 09:51:53;;;;;;;8.37;4.00;;;32.60;99.90;;;;;;5016661;28;20450;-52
2022/06/23 09:54:24;;;;;;;6.77;4.30;;;32.70;99.90;;;;;;5018939;28;20461;-52
2022/06/23 09:56:56;;;;;;;5.97;4.10;;;32.80;99.90;;;;;;5021543;28;20426;-52
2022/06/23 09:59:27;;;;;;;5.13;3.97;;;32.60;99.90;;;;;;5017838;28;20457;-52
2022/06/23 10:02:02;;;;;;;4.47;3.20;;;32.50;99.90;;;;;;5015787;28;20561;-51
2022/06/23 10:05:07;;;;;;;7.40;4.07;;;32.60;99.90;;;;;;5013499;28;20417;-51
2022/06/23 10:07:44;;;;;;;3.60;3.30;;;32.80;99.90;;;;;;4999315;28;20433;-52
2022/06/23 10:10:33;;;;;;;5.80;3.50;;;33.30;99.90;;;;;;5019123;28;20555;-52
2022/06/23 10:13:11;;;;;;;6.20;3.93;;;33.70;99.90;;;;;;5017089;28;20415;-52
2022/06/23 10:16:04;;;;;;;6.83;3.50;;;33.80;99.90;;;;;;5015442;28;20446;-52
2022/06/23 10:18:54;;;;;;;5.40;3.17;;;33.80;99.90;;;;;;5016351;28;20423;-52
2022/06/23 10:21:27;;;;;;;5.13;3.80;;;34.00;99.90;;;;;;5019131;28;20503;-52
2022/06/23 10:24:30;;;;;;;6.00;3.63;;;34.00;99.90;;;;;;5015595;28;20831;-52
2022/06/23 10:27:30;;;;;;;3.73;3.33;;;33.90;99.90;;;;;;5019005;28;20977;-52
2022/06/23 10:30:02;;;;;;;5.27;3.50;;;34.20;99.90;;;;;;5015589;28;20435;-52
2022/06/23 10:32:48;;;;;;;4.77;3.20;;;34.30;99.90;;;;;;5025097;28;21296;-55
2022/06/23 10:35:40;;;;;;;3.97;3.23;;;34.60;99.90;;;;;;5017443;28;20484;-56
2022/06/23 10:38:20;;;;;;;3.87;3.03;;;34.60;99.90;;;;;;5018368;28;20421;-55
2022/06/23 10:41:25;;;;;;;2.90;2.70;;;34.80;99.90;;;;;;5017803;28;20948;-55
2022/06/23 10:43:59;;;;;;;4.20;3.30;;;35.10;99.90;;;;;;5010383;28;20603;-55
2022/06/23 10:46:53;;;;;;;3.50;3.20;;;35.30;99.90;;;;;;5030017;28;20833;-54
2022/06/23 10:49:46;;;;;;;5.90;2.60;;;35.20;99.90;;;;;;5028310;28;20453;-54
2022/06/23 10:52:16;;;;;;;4.03;2.20;;;35.50;99.90;;;;;;5029052;28;20412;-52
2022/06/23 10:54:57;;;;;;;5.57;2.60;;;35.60;99.90;;;;;;5030246;28;20786;-52
2022/06/23 10:57:40;;;;;;;6.00;2.93;;;35.90;99.90;;;;;;5023324;28;20407;-52
2022/06/23 11:00:07;;;;;;;5.30;2.60;;;35.80;99.90;;;;;;5028156;28;20762;-52
2022/06/23 11:03:01;;;;;;;5.60;3.00;;;35.80;99.90;;;;;;5030437;28;20461;-52
2022/06/23 11:05:32;;;;;;;7.87;2.93;;;35.80;99.90;;;;;;5030405;28;20755;-52
2022/06/23 11:08:21;;;;;;;4.63;3.27;;;35.90;99.90;;;;;;5030763;28;20380;-52
2022/06/23 11:11:12;;;;;;;3.30;3.00;;;35.90;99.90;;;;;;5029728;28;20429;-52
2022/06/23 11:14:10;;;;;;;2.67;2.47;;;35.80;99.90;;;;;;5030238;28;20472;-52
2022/06/23 11:17:23;;;;;;;2.57;2.10;;;35.50;99.90;;;;;;5026932;28;20500;-52
2022/06/23 11:20:11;;;;;;;2.57;2.37;;;34.90;99.90;;;;;;5027105;28;20495;-52
2022/06/23 11:22:46;;;;;;;4.80;2.30;;;34.70;99.90;;;;;;5029089;28;20460;-52
2022/06/23 11:25:24;;;;;;;2.63;2.43;;;35.00;99.90;;;;;;5030524;28;20483;-52
2022/06/23 11:28:04;;;;;;;3.03;2.40;;;35.50;99.90;;;;;;5023099;28;20479;-52
2022/06/23 11:30:53;;;;;;;2.83;2.53;;;36.00;99.90;;;;;;5029613;28;20471;-53
2022/06/23 11:33:29;;;;;;;4.73;2.80;;;36.00;99.90;;;;;;5030407;28;20434;-52
2022/06/23 11:36:28;;;;;;;7.57;3.20;;;35.70;99.90;;;;;;5030227;28;20407;-52
2022/06/23 11:39:24;;;;;;;7.27;2.80;;;34.70;99.90;;;;;;5028439;28;20420;-53
2022/06/23 11:42:41;;;;;;;2.80;2.60;;;34.90;99.90;;;;;;5028214;28;20465;-52
2022/06/23 11:45:27;;;;;;;3.47;2.53;;;35.40;99.90;;;;;;5025544;28;20611;-52
2022/06/23 11:48:27;;;;;;;3.67;2.47;;;35.80;99.90;;;;;;5029101;28;20437;-54
2022/06/23 11:51:01;;;;;;;9.57;2.93;;;35.50;99.90;;;;;;5030201;28;21086;-53
2022/06/23 11:53:35;;;;;;;3.93;2.80;;;35.60;99.90;;;;;;5029783;28;20739;-52
2022/06/23 11:56:24;;;;;;;4.50;2.90;;;35.50;99.90;;;;;;5029944;28;20400;-53
2022/06/23 11:59:21;;;;;;;3.53;3.00;;;35.30;99.90;;;;;;5027141;28;20548;-52
2022/06/23 12:01:46;;;;;;;3.00;2.47;;;35.50;99.90;;;;;;5027972;28;21028;-54
2022/06/23 12:04:18;;;;;;;5.47;2.60;;;35.60;99.90;;;;;;5029890;28;20448;-54
2022/06/23 12:06:53;;;;;;;7.27;3.07;;;35.80;99.90;;;;;;5028373;28;20564;-55
2022/06/23 12:09:35;;;;;;;6.40;3.00;;;35.90;99.90;;;;;;5027098;28;20516;-54
2022/06/23 12:12:05;;;;;;;5.33;2.90;;;36.00;99.90;;;;;;5023401;28;20430;-55
2022/06/23 12:14:32;;;;;;;4.13;3.03;;;36.10;99.90;;;;;;5033907;28;20448;-54
2022/06/23 12:17:11;;;;;;;19.10;3.27;;;36.30;99.90;;;;;;5033740;28;20571;-54
2022/06/23 12:20:01;;;;;;;4.63;3.43;;;36.40;99.90;;;;;;5033274;28;20979;-54
2022/06/23 12:22:52;;;;;;;5.10;3.30;;;36.30;99.90;;;;;;5031624;28;20508;-55
2022/06/23 12:25:24;;;;;;;3.80;3.27;;;36.40;99.90;;;;;;5032167;28;20464;-54
2022/06/23 12:28:21;;;;;;;4.40;3.00;;;36.00;99.90;;;;;;5032822;28;20495;-54
2022/06/23 12:31:09;;;;;;;5.17;3.70;;;36.00;99.90;;;;;;5030282;28;20445;-55
2022/06/23 12:33:58;;;;;;;5.07;3.70;;;36.10;99.90;;;;;;5031856;28;20442;-54
2022/06/23 12:36:47;;;;;;;3.33;3.10;;;36.00;99.90;;;;;;5027857;28;20445;-54
2022/06/23 12:39:27;;;;;;;5.30;2.80;;;35.90;99.90;;;;;;5022197;28;20444;-54
2022/06/23 12:41:59;;;;;;;4.37;3.20;;;35.90;99.90;;;;;;5032826;28;20475;-55
2022/06/23 12:44:38;;;;;;;7.40;3.20;;;35.70;99.90;;;;;;5026894;28;20420;-54
2022/06/23 12:47:30;;;;;;;3.70;3.17;;;35.70;99.90;;;;;;5030052;28;20442;-54
2022/06/23 12:50:13;;;;;;;4.10;3.33;;;35.80;99.90;;;;;;5027932;28;20575;-54
2022/06/23 12:53:10;;;;;;;3.33;2.83;;;35.80;99.90;;;;;;5033343;28;20546;-54
2022/06/23 12:56:05;;;;;;;5.60;3.00;;;35.90;99.90;;;;;;5031852;28;20918;-54
2022/06/23 12:58:49;;;;;;;7.33;3.70;;;36.00;99.90;;;;;;5032891;28;20768;-54
2022/06/23 13:01:46;;;;;;;4.30;3.43;;;35.90;99.90;;;;;;5026638;28;20430;-55
2022/06/23 13:04:14;;;;;;;4.57;2.70;;;35.80;99.90;;;;;;5027899;28;20904;-55
2022/06/23 13:06:57;;;;;;;5.50;3.37;;;35.80;99.90;;;;;;5032520;28;20426;-54
2022/06/23 13:10:04;;;;;;;5.17;3.10;;;36.10;99.90;;;;;;5032807;28;20416;-55
2022/06/23 13:12:57;;;;;;;6.63;3.17;;;36.30;99.90;;;;;;5008213;28;20440;-55
2022/06/23 13:15:41;;;;;;;3.40;3.10;;;36.20;99.90;;;;;;5032421;28;20450;-54
2022/06/23 13:18:25;;;;;;;3.03;2.73;;;36.40;99.90;;;;;;5032425;28;20961;-55
2022/06/23 13:21:26;;;;;;;5.00;3.40;;;36.80;99.90;;;;;;5031531;28;20447;-55
2022/06/23 13:23:57;;;;;;;6.23;3.40;;;36.70;99.90;;;;;;5030679;28;20433;-55
2022/06/23 13:26:38;;;;;;;4.07;3.10;;;36.60;99.90;;;;;;5031679;28;20422;-55
2022/06/23 13:29:12;;;;;;;6.77;3.60;;;36.70;99.90;;;;;;5029879;28;20418;-54
2022/06/23 13:31:58;;;;;;;3.03;2.83;;;36.70;99.90;;;;;;5032284;28;20429;-54
2022/06/23 13:34:28;;;;;;;6.83;3.10;;;36.60;99.90;;;;;;5024175;28;20500;-54
2022/06/23 13:36:59;;;;;;;3.77;3.20;;;36.60;99.90;;;;;;5031968;28;20509;-54
2022/06/23 13:39:47;;;;;;;4.10;3.10;;;36.60;99.90;;;;;;5024148;28;20519;-54
2022/06/23 13:42:22;;;;;;;3.90;2.97;;;36.50;99.90;;;;;;5017779;28;20900;-55
2022/06/23 13:45:12;;;;;;;3.37;3.07;;;36.50;99.90;;;;;;5022403;28;20468;-55
2022/06/23 13:47:58;;;;;;;3.23;2.93;;;36.30;99.90;;;;;;5031281;28;20959;-54
2022/06/23 13:50:34;;;;;;;4.40;2.70;;;35.90;99.90;;;;;;5031220;28;20642;-54
2022/06/23 13:53:09;;;;;;;4.53;2.80;;;35.60;99.90;;;;;;5031799;28;20440;-54
2022/06/23 13:55:48;;;;;;;3.30;2.73;;;35.70;99.90;;;;;;5031735;28;20421;-56
2022/06/23 13:58:28;;;;;;;4.13;3.73;;;35.70;99.90;;;;;;5031902;28;20914;-57
2022/06/23 14:01:12;;;;;;;2.77;2.57;;;35.30;99.90;;;;;;5032118;28;20414;-54